sensor_id;sensor_type;location;lat;lon;timestamp;pressure;altitude;pressure_sealevel;temperature;humidity
21109;BME280;10712;52.944;9.098;2022-12-10T00:03:39;100775.53;;;9.20;52.99
21109;BME280;10712;52.944;9.098;2022-12-10T00:06:10;100771.94;;;9.21;53.17
21109;BME280;10712;52.944;9.098;2022-12-10T00:08:37;100774.69;;;9.20;53.07
21109;BME280;10712;52.944;9.098;2022-12-10T00:11:06;100778.19;;;9.20;53.11
21109;BME280;10712;52.944;9.098;2022-12-10T00:13:35;100771.19;;;9.19;53.04
21109;BME280;10712;52.944;9.098;2022-12-10T00:16:03;100764.03;;;9.20;53.04
21109;BME280;10712;52.944;9.098;2022-12-10T00:18:30;100767.50;;;9.22;52.93
21109;BME280;10712;52.944;9.098;2022-12-10T00:20:56;100771.94;;;9.21;53.05
21109;BME280;10712;52.944;9.098;2022-12-10T00:23:22;100766.94;;;9.15;53.07
21109;BME280;10712;52.944;9.098;2022-12-10T00:25:48;100767.81;;;9.16;53.07
21109;BME280;10712;52.944;9.098;2022-12-10T00:28:14;100765.88;;;9.19;53.05
21109;BME280;10712;52.944;9.098;2022-12-10T00:30:40;100767.56;;;9.20;53.03
21109;BME280;10712;52.944;9.098;2022-12-10T00:33:06;100771.19;;;9.19;52.92
21109;BME280;10712;52.944;9.098;2022-12-10T00:35:36;100773.66;;;9.22;53.04
21109;BME280;10712;52.944;9.098;2022-12-10T00:38:03;100779.16;;;9.19;53.19
21109;BME280;10712;52.944;9.098;2022-12-10T00:40:28;100785.31;;;9.20;53.02
21109;BME280;10712;52.944;9.098;2022-12-10T00:42:54;100782.59;;;9.21;53.05
21109;BME280;10712;52.944;9.098;2022-12-10T00:45:20;100782.84;;;9.17;52.97
21109;BME280;10712;52.944;9.098;2022-12-10T00:47:49;100782.91;;;9.15;52.80
21109;BME280;10712;52.944;9.098;2022-12-10T00:50:14;100786.34;;;9.17;52.97
21109;BME280;10712;52.944;9.098;2022-12-10T00:52:40;100781.03;;;9.17;52.89
21109;BME280;10712;52.944;9.098;2022-12-10T00:55:06;100786.28;;;9.19;53.06
21109;BME280;10712;52.944;9.098;2022-12-10T00:57:32;100781.03;;;9.17;53.06
21109;BME280;10712;52.944;9.098;2022-12-10T00:59:58;100787.13;;;9.19;52.90
21109;BME280;10712;52.944;9.098;2022-12-10T01:02:24;100790.63;;;9.20;52.93
21109;BME280;10712;52.944;9.098;2022-12-10T01:04:53;100786.16;;;9.20;53.04
21109;BME280;10712;52.944;9.098;2022-12-10T01:07:19;100791.41;;;9.22;52.96
21109;BME280;10712;52.944;9.098;2022-12-10T01:09:45;100794.16;;;9.20;52.99
21109;BME280;10712;52.944;9.098;2022-12-10T01:12:11;100794.78;;;9.25;52.64
21109;BME280;10712;52.944;9.098;2022-12-10T01:14:37;100796.91;;;9.19;53.00
21109;BME280;10712;52.944;9.098;2022-12-10T01:17:05;100798.53;;;9.21;52.94
21109;BME280;10712;52.944;9.098;2022-12-10T01:19:33;100797.78;;;9.19;53.16
21109;BME280;10712;52.944;9.098;2022-12-10T01:22:01;100803.06;;;9.02;53.06
21109;BME280;10712;52.944;9.098;2022-12-10T01:24:29;100803.06;;;9.02;52.96
21109;BME280;10712;52.944;9.098;2022-12-10T01:26:55;100801.97;;;9.06;53.00
21109;BME280;10712;52.944;9.098;2022-12-10T01:29:22;100801.91;;;9.07;53.00
21109;BME280;10712;52.944;9.098;2022-12-10T01:31:52;100804.72;;;9.04;53.04
21109;BME280;10712;52.944;9.098;2022-12-10T01:34:18;100803.38;;;8.96;53.22
21109;BME280;10712;52.944;9.098;2022-12-10T01:36:50;100805.97;;;8.97;53.29
21109;BME280;10712;52.944;9.098;2022-12-10T01:39:18;100804.94;;;9.00;53.10
21109;BME280;10712;52.944;9.098;2022-12-10T01:41:52;100812.69;;;9.04;53.15
21109;BME280;10712;52.944;9.098;2022-12-10T01:46:47;100811.53;;;9.10;53.31
21109;BME280;10712;52.944;9.098;2022-12-10T01:49:18;100826.34;;;9.14;53.26
21109;BME280;10712;52.944;9.098;2022-12-10T01:51:48;100821.84;;;9.16;53.28
21109;BME280;10712;52.944;9.098;2022-12-10T01:54:25;100817.69;;;9.11;53.24
21109;BME280;10712;52.944;9.098;2022-12-10T01:57:12;100816.66;;;9.13;53.22
21109;BME280;10712;52.944;9.098;2022-12-10T01:59:41;100823.69;;;9.14;53.36
21109;BME280;10712;52.944;9.098;2022-12-10T02:02:34;100829.19;;;9.11;53.33
21109;BME280;10712;52.944;9.098;2022-12-10T02:12:49;100827.28;;;9.13;53.33
21109;BME280;10712;52.944;9.098;2022-12-10T02:15:24;100832.84;;;9.08;53.24
21109;BME280;10712;52.944;9.098;2022-12-10T02:17:57;100832.91;;;9.07;53.25
21109;BME280;10712;52.944;9.098;2022-12-10T02:20:35;100827.47;;;9.10;53.27
21109;BME280;10712;52.944;9.098;2022-12-10T02:23:14;100828.69;;;9.20;53.03
21109;BME280;10712;52.944;9.098;2022-12-10T02:26:02;100826.22;;;9.17;53.15
21109;BME280;10712;52.944;9.098;2022-12-10T02:31:50;100839.50;;;9.17;53.21
21109;BME280;10712;52.944;9.098;2022-12-10T02:34:21;100828.81;;;9.19;53.23
21109;BME280;10712;52.944;9.098;2022-12-10T02:36:53;100825.19;;;9.20;53.09
21109;BME280;10712;52.944;9.098;2022-12-10T02:39:27;100834.97;;;9.19;53.15
21109;BME280;10712;52.944;9.098;2022-12-10T02:41:59;100829.88;;;9.15;53.07
21109;BME280;10712;52.944;9.098;2022-12-10T02:44:29;100834.50;;;9.11;53.19
21109;BME280;10712;52.944;9.098;2022-12-10T02:46:58;100830.19;;;9.08;53.20
21109;BME280;10712;52.944;9.098;2022-12-10T02:49:30;100832.59;;;9.13;53.07
21109;BME280;10712;52.944;9.098;2022-12-10T02:52:06;100834.34;;;9.14;53.26
21109;BME280;10712;52.944;9.098;2022-12-10T02:57:07;100838.72;;;9.15;53.07
21109;BME280;10712;52.944;9.098;2022-12-10T03:08:41;100837.47;;;9.22;53.03
21109;BME280;10712;52.944;9.098;2022-12-10T03:11:30;100847.03;;;9.26;52.89
21109;BME280;10712;52.944;9.098;2022-12-10T03:14:27;100844.13;;;9.31;53.20
21109;BME280;10712;52.944;9.098;2022-12-10T03:16:59;100837.00;;;9.31;52.99
21109;BME280;10712;52.944;9.098;2022-12-10T03:19:47;100831.81;;;9.28;52.98
21109;BME280;10712;52.944;9.098;2022-12-10T03:22:19;100836.06;;;9.32;52.83
21109;BME280;10712;52.944;9.098;2022-12-10T03:24:47;100835.13;;;9.33;52.86
21109;BME280;10712;52.944;9.098;2022-12-10T03:27:15;100837.88;;;9.32;52.82
21109;BME280;10712;52.944;9.098;2022-12-10T03:29:50;100830.09;;;9.27;52.94
21109;BME280;10712;52.944;9.098;2022-12-10T03:32:20;100828.56;;;9.23;52.96
21109;BME280;10712;52.944;9.098;2022-12-10T03:34:49;100835.75;;;9.21;53.02
21109;BME280;10712;52.944;9.098;2022-12-10T03:37:17;100834.88;;;9.21;52.95
21109;BME280;10712;52.944;9.098;2022-12-10T03:39:44;100833.00;;;9.23;52.90
21109;BME280;10712;52.944;9.098;2022-12-10T03:42:10;100832.31;;;9.19;52.95
21109;BME280;10712;52.944;9.098;2022-12-10T03:44:38;100832.31;;;9.19;52.97
21109;BME280;10712;52.944;9.098;2022-12-10T03:47:08;100834.97;;;9.19;52.86
21109;BME280;10712;52.944;9.098;2022-12-10T03:49:36;100833.88;;;9.23;52.88
21109;BME280;10712;52.944;9.098;2022-12-10T03:52:02;100825.09;;;9.21;52.91
21109;BME280;10712;52.944;9.098;2022-12-10T03:54:28;100832.00;;;9.25;52.89
21109;BME280;10712;52.944;9.098;2022-12-10T03:56:54;100828.63;;;9.22;52.92
21109;BME280;10712;52.944;9.098;2022-12-10T03:59:20;100830.28;;;9.24;52.80
21109;BME280;10712;52.944;9.098;2022-12-10T04:01:46;100833.72;;;9.26;52.95
21109;BME280;10712;52.944;9.098;2022-12-10T04:04:12;100832.88;;;9.26;53.20
21109;BME280;10712;52.944;9.098;2022-12-10T04:06:40;100832.94;;;9.24;52.87
21109;BME280;10712;52.944;9.098;2022-12-10T04:09:08;100826.69;;;9.25;53.01
21109;BME280;10712;52.944;9.098;2022-12-10T04:11:34;100826.69;;;9.25;52.92
21109;BME280;10712;52.944;9.098;2022-12-10T04:14:00;100826.69;;;9.25;52.78
21109;BME280;10712;52.944;9.098;2022-12-10T04:16:45;100818.78;;;9.24;52.83
21109;BME280;10712;52.944;9.098;2022-12-10T04:19:15;100826.69;;;9.25;52.83
21109;BME280;10712;52.944;9.098;2022-12-10T04:21:43;100832.63;;;9.30;52.81
21109;BME280;10712;52.944;9.098;2022-12-10T04:24:32;100823.94;;;9.27;52.73
21109;BME280;10712;52.944;9.098;2022-12-10T04:27:29;100822.31;;;9.24;52.70
21109;BME280;10712;52.944;9.098;2022-12-10T04:29:56;100817.78;;;9.26;52.71
21109;BME280;10712;52.944;9.098;2022-12-10T04:32:24;100814.34;;;9.24;52.75
21109;BME280;10712;52.944;9.098;2022-12-10T04:34:51;100821.19;;;9.28;52.60
21109;BME280;10712;52.944;9.098;2022-12-10T04:37:17;100812.47;;;9.26;52.75
21109;BME280;10712;52.944;9.098;2022-12-10T04:39:44;100819.97;;;9.18;52.72
21109;BME280;10712;52.944;9.098;2022-12-10T04:42:11;100817.28;;;9.01;53.00
21109;BME280;10712;52.944;9.098;2022-12-10T04:44:37;100819.34;;;8.96;53.14
21109;BME280;10712;52.944;9.098;2022-12-10T04:47:05;100820.25;;;8.95;53.35
21109;BME280;10712;52.944;9.098;2022-12-10T04:49:32;100810.44;;;8.97;53.19
21109;BME280;10712;52.944;9.098;2022-12-10T04:51:58;100818.22;;;9.00;53.31
21109;BME280;10712;52.944;9.098;2022-12-10T04:54:24;100813.56;;;9.05;53.15
21109;BME280;10712;52.944;9.098;2022-12-10T04:56:53;100814.19;;;9.10;52.92
21109;BME280;10712;52.944;9.098;2022-12-10T04:59:19;100819.41;;;9.12;52.80
21109;BME280;10712;52.944;9.098;2022-12-10T05:01:45;100821.44;;;9.06;52.79
21109;BME280;10712;52.944;9.098;2022-12-10T05:04:14;100826.38;;;8.97;52.80
21109;BME280;10712;52.944;9.098;2022-12-10T05:06:40;100823.72;;;8.97;52.76
21109;BME280;10712;52.944;9.098;2022-12-10T05:09:07;100816.91;;;8.91;52.68
21109;BME280;10712;52.944;9.098;2022-12-10T05:11:34;100821.50;;;8.88;52.92
21109;BME280;10712;52.944;9.098;2022-12-10T05:14:00;100819.47;;;8.93;52.77
21109;BME280;10712;52.944;9.098;2022-12-10T05:16:28;100819.34;;;8.96;52.81
21109;BME280;10712;52.944;9.098;2022-12-10T05:18:56;100827.06;;;9.00;52.64
21109;BME280;10712;52.944;9.098;2022-12-10T05:21:25;100823.47;;;9.01;52.70
21109;BME280;10712;52.944;9.098;2022-12-10T05:24:12;100824.19;;;9.05;52.91
21109;BME280;10712;52.944;9.098;2022-12-10T05:26:38;100824.00;;;9.08;52.93
21109;BME280;10712;52.944;9.098;2022-12-10T05:29:04;100818.69;;;9.08;52.84
21109;BME280;10712;52.944;9.098;2022-12-10T05:31:30;100827.59;;;9.07;52.87
21109;BME280;10712;52.944;9.098;2022-12-10T05:33:58;100825.75;;;9.09;52.73
21109;BME280;10712;52.944;9.098;2022-12-10T05:36:29;100824.94;;;9.07;52.90
21109;BME280;10712;52.944;9.098;2022-12-10T05:38:57;100828.72;;;9.03;52.85
21109;BME280;10712;52.944;9.098;2022-12-10T05:41:29;100830.50;;;9.02;52.81
21109;BME280;10712;52.944;9.098;2022-12-10T05:43:56;100832.91;;;9.07;52.81
21109;BME280;10712;52.944;9.098;2022-12-10T05:46:26;100836.69;;;9.03;52.88
21109;BME280;10712;52.944;9.098;2022-12-10T05:48:53;100839.28;;;9.04;52.99
21109;BME280;10712;52.944;9.098;2022-12-10T05:51:24;100833.22;;;9.01;52.83
21109;BME280;10712;52.944;9.098;2022-12-10T05:53:51;100843.88;;;9.01;52.81
21109;BME280;10712;52.944;9.098;2022-12-10T05:56:21;100844.78;;;9.00;53.05
21109;BME280;10712;52.944;9.098;2022-12-10T05:58:50;100849.34;;;8.98;53.01
21109;BME280;10712;52.944;9.098;2022-12-10T06:01:23;100850.22;;;8.98;53.26
21109;BME280;10712;52.944;9.098;2022-12-10T06:03:50;100849.19;;;9.01;52.99
21109;BME280;10712;52.944;9.098;2022-12-10T06:06:26;100858.88;;;9.02;52.99
21109;BME280;10712;52.944;9.098;2022-12-10T06:08:54;100859.81;;;9.01;52.96
21109;BME280;10712;52.944;9.098;2022-12-10T06:11:20;100854.66;;;8.98;53.07
21109;BME280;10712;52.944;9.098;2022-12-10T06:13:46;100854.88;;;8.93;52.83
21109;BME280;10712;52.944;9.098;2022-12-10T06:16:14;100855.09;;;8.89;52.96
21109;BME280;10712;52.944;9.098;2022-12-10T06:18:40;100856.53;;;8.96;53.04
21109;BME280;10712;52.944;9.098;2022-12-10T06:21:13;100859.81;;;9.01;52.87
21109;BME280;10712;52.944;9.098;2022-12-10T06:23:40;100864.25;;;9.00;53.03
21109;BME280;10712;52.944;9.098;2022-12-10T06:26:16;100863.25;;;9.03;52.91
21109;BME280;10712;52.944;9.098;2022-12-10T06:28:47;100863.25;;;9.03;52.97
21109;BME280;10712;52.944;9.098;2022-12-10T06:31:14;100858.50;;;8.74;52.84
21109;BME280;10712;52.944;9.098;2022-12-10T06:33:41;100866.03;;;8.83;52.76
21109;BME280;10712;52.944;9.098;2022-12-10T06:36:10;100867.59;;;8.87;52.86
21109;BME280;10712;52.944;9.098;2022-12-10T06:38:37;100865.59;;;8.92;52.86
21109;BME280;10712;52.944;9.098;2022-12-10T06:41:12;100867.09;;;8.97;52.74
21109;BME280;10712;52.944;9.098;2022-12-10T06:43:38;100867.28;;;8.93;52.83
21109;BME280;10712;52.944;9.098;2022-12-10T06:46:10;100865.59;;;8.92;52.78
21109;BME280;10712;52.944;9.098;2022-12-10T06:48:36;100873.47;;;8.93;52.81
21109;BME280;10712;52.944;9.098;2022-12-10T06:51:04;100877.63;;;8.99;52.74
21109;BME280;10712;52.944;9.098;2022-12-10T06:53:31;100879.34;;;9.00;52.79
21109;BME280;10712;52.944;9.098;2022-12-10T06:56:01;100882.84;;;9.00;52.75
21109;BME280;10712;52.944;9.098;2022-12-10T06:58:28;100887.97;;;9.05;52.63
21109;BME280;10712;52.944;9.098;2022-12-10T07:01:01;100881.84;;;9.03;52.55
21109;BME280;10712;52.944;9.098;2022-12-10T07:03:27;100883.72;;;9.01;52.69
21109;BME280;10712;52.944;9.098;2022-12-10T07:06:00;100889.84;;;9.03;52.56
21109;BME280;10712;52.944;9.098;2022-12-10T07:08:27;100889.84;;;9.03;52.88
21109;BME280;10712;52.944;9.098;2022-12-10T07:10:53;100895.28;;;9.00;52.63
21109;BME280;10712;52.944;9.098;2022-12-10T07:13:19;100891.88;;;8.98;52.81
21109;BME280;10712;52.944;9.098;2022-12-10T07:15:45;100895.44;;;8.97;52.58
21109;BME280;10712;52.944;9.098;2022-12-10T07:18:11;100895.44;;;8.97;52.43
21109;BME280;10712;52.944;9.098;2022-12-10T07:20:36;100893.00;;;8.92;52.55
21109;BME280;10712;52.944;9.098;2022-12-10T07:23:02;100904.50;;;8.93;52.55
21109;BME280;10712;52.944;9.098;2022-12-10T07:25:28;100909.66;;;8.96;52.51
21109;BME280;10712;52.944;9.098;2022-12-10T07:27:55;100903.25;;;9.00;52.52
21109;BME280;10712;52.944;9.098;2022-12-10T07:30:21;100904.34;;;8.96;52.35
21109;BME280;10712;52.944;9.098;2022-12-10T07:32:47;100905.28;;;8.95;52.47
21109;BME280;10712;52.944;9.098;2022-12-10T07:35:12;100910.47;;;8.98;52.32
21109;BME280;10712;52.944;9.098;2022-12-10T07:37:38;100914.81;;;8.99;52.53
21109;BME280;10712;52.944;9.098;2022-12-10T07:40:05;100923.75;;;8.98;52.53
21109;BME280;10712;52.944;9.098;2022-12-10T07:42:31;100917.56;;;8.97;52.48
21109;BME280;10712;52.944;9.098;2022-12-10T07:44:56;100914.97;;;8.96;52.60
21109;BME280;10712;52.944;9.098;2022-12-10T07:47:23;100922.16;;;8.94;52.53
21109;BME280;10712;52.944;9.098;2022-12-10T07:49:49;100921.53;;;8.89;52.55
21109;BME280;10712;52.944;9.098;2022-12-10T07:52:14;100919.72;;;8.89;52.55
21109;BME280;10712;52.944;9.098;2022-12-10T07:54:40;100922.47;;;8.88;52.62
21109;BME280;10712;52.944;9.098;2022-12-10T07:57:06;100923.31;;;8.88;52.72
21109;BME280;10712;52.944;9.098;2022-12-10T07:59:32;100928.41;;;8.93;53.07
21109;BME280;10712;52.944;9.098;2022-12-10T08:01:57;100936.53;;;8.90;52.63
21109;BME280;10712;52.944;9.098;2022-12-10T08:04:23;100935.59;;;8.91;52.68
21109;BME280;10712;52.944;9.098;2022-12-10T08:06:49;100938.25;;;8.91;52.82
21109;BME280;10712;52.944;9.098;2022-12-10T08:09:15;100938.34;;;8.89;52.71
21109;BME280;10712;52.944;9.098;2022-12-10T08:11:40;100940.00;;;8.92;52.64
21109;BME280;10712;52.944;9.098;2022-12-10T08:14:06;100941.56;;;8.96;52.68
21109;BME280;10712;52.944;9.098;2022-12-10T08:16:32;100941.25;;;9.02;52.71
21109;BME280;10712;52.944;9.098;2022-12-10T08:19:00;100939.53;;;9.01;52.87
21109;BME280;10712;52.944;9.098;2022-12-10T08:21:30;100950.31;;;8.98;52.55
21109;BME280;10712;52.944;9.098;2022-12-10T08:23:56;100950.44;;;8.95;52.37
21109;BME280;10712;52.944;9.098;2022-12-10T08:26:27;100944.22;;;8.96;52.57
21109;BME280;10712;52.944;9.098;2022-12-10T08:28:54;100946.88;;;8.96;52.49
21109;BME280;10712;52.944;9.098;2022-12-10T08:31:22;100947.78;;;8.95;52.67
21109;BME280;10712;52.944;9.098;2022-12-10T08:33:48;100950.44;;;8.95;52.75
21109;BME280;10712;52.944;9.098;2022-12-10T08:36:16;100948.44;;;9.00;52.58
21109;BME280;10712;52.944;9.098;2022-12-10T08:38:43;100962.50;;;9.02;52.59
21109;BME280;10712;52.944;9.098;2022-12-10T08:41:14;100957.06;;;9.05;52.76
21109;BME280;10712;52.944;9.098;2022-12-10T08:43:40;100963.94;;;9.09;52.57
21109;BME280;10712;52.944;9.098;2022-12-10T08:46:07;100962.22;;;9.08;52.66
21109;BME280;10712;52.944;9.098;2022-12-10T08:48:34;100964.22;;;9.03;52.68
21109;BME280;10712;52.944;9.098;2022-12-10T08:51:02;100971.56;;;8.98;52.59
21109;BME280;10712;52.944;9.098;2022-12-10T08:53:28;100971.41;;;9.01;52.70
21109;BME280;10712;52.944;9.098;2022-12-10T08:55:54;100972.22;;;9.03;52.55
21109;BME280;10712;52.944;9.098;2022-12-10T08:58:20;100973.00;;;9.05;52.56
21109;BME280;10712;52.944;9.098;2022-12-10T09:00:48;100969.31;;;9.07;52.73
21109;BME280;10712;52.944;9.098;2022-12-10T09:03:15;100972.84;;;9.08;52.67
21109;BME280;10712;52.944;9.098;2022-12-10T09:05:41;100972.84;;;9.08;52.38
21109;BME280;10712;52.944;9.098;2022-12-10T09:08:07;100965.66;;;9.10;52.48
21109;BME280;10712;52.944;9.098;2022-12-10T09:10:36;100980.38;;;9.17;52.51
21109;BME280;10712;52.944;9.098;2022-12-10T09:13:03;100971.47;;;9.18;52.43
21109;BME280;10712;52.944;9.098;2022-12-10T09:15:29;100980.50;;;9.14;52.40
21109;BME280;10712;52.944;9.098;2022-12-10T09:17:54;100980.81;;;9.08;52.40
21109;BME280;10712;52.944;9.098;2022-12-10T09:20:20;100988.22;;;9.01;52.29
21109;BME280;10712;52.944;9.098;2022-12-10T09:22:46;100988.84;;;9.06;52.11
21109;BME280;10712;52.944;9.098;2022-12-10T09:25:12;100989.72;;;9.07;52.35
21109;BME280;10712;52.944;9.098;2022-12-10T09:27:41;100989.50;;;9.12;52.24
21109;BME280;10712;52.944;9.098;2022-12-10T09:30:08;100987.72;;;9.12;52.15
21109;BME280;10712;52.944;9.098;2022-12-10T09:32:37;100984.66;;;9.20;52.26
21109;BME280;10712;52.944;9.098;2022-12-10T09:35:04;100993.44;;;9.22;52.18
21109;BME280;10712;52.944;9.098;2022-12-10T09:37:31;100991.63;;;9.22;52.19
21109;BME280;10712;52.944;9.098;2022-12-10T09:39:57;100991.50;;;9.25;51.98
21109;BME280;10712;52.944;9.098;2022-12-10T09:45:01;100984.28;;;9.27;51.76
21109;BME280;10712;52.944;9.098;2022-12-10T09:50:26;100994.91;;;9.27;51.53
21109;BME280;10712;52.944;9.098;2022-12-10T09:52:53;101000.25;;;9.27;51.45
21109;BME280;10712;52.944;9.098;2022-12-10T09:55:32;100993.91;;;9.30;51.31
21109;BME280;10712;52.944;9.098;2022-12-10T09:58:02;100986.03;;;9.28;51.15
21109;BME280;10712;52.944;9.098;2022-12-10T10:00:40;100994.84;;;9.29;51.28
21109;BME280;10712;52.944;9.098;2022-12-10T10:03:14;100985.88;;;9.31;51.25
21109;BME280;10712;52.944;9.098;2022-12-10T10:05:52;100994.06;;;9.27;51.02
21109;BME280;10712;52.944;9.098;2022-12-10T10:08:28;100986.03;;;9.28;51.05
21109;BME280;10712;52.944;9.098;2022-12-10T10:10:56;100991.19;;;9.31;50.93
21109;BME280;10712;52.944;9.098;2022-12-10T10:16:00;101000.97;;;9.31;50.72
21109;BME280;10712;52.944;9.098;2022-12-10T10:18:41;101002.75;;;9.30;50.65
21109;BME280;10712;52.944;9.098;2022-12-10T10:21:38;100995.78;;;9.28;50.67
21109;BME280;10712;52.944;9.098;2022-12-10T10:24:06;101003.00;;;9.26;50.54
21109;BME280;10712;52.944;9.098;2022-12-10T10:26:35;101004.94;;;9.22;50.33
21109;BME280;10712;52.944;9.098;2022-12-10T10:29:07;101001.34;;;9.23;50.46
21109;BME280;10712;52.944;9.098;2022-12-10T10:31:38;101002.91;;;9.27;50.61
21109;BME280;10712;52.944;9.098;2022-12-10T10:36:39;100996.34;;;9.34;50.31
21109;BME280;10712;52.944;9.098;2022-12-10T10:39:10;101001.84;;;9.31;50.29
21109;BME280;10712;52.944;9.098;2022-12-10T10:41:39;100998.38;;;9.29;50.32
21109;BME280;10712;52.944;9.098;2022-12-10T10:44:15;100997.38;;;9.32;50.25
21109;BME280;10712;52.944;9.098;2022-12-10T10:46:44;100992.91;;;9.32;50.38
21109;BME280;10712;52.944;9.098;2022-12-10T10:49:21;100996.66;;;9.28;50.59
21109;BME280;10712;52.944;9.098;2022-12-10T10:51:47;100994.84;;;9.29;50.28
21109;BME280;10712;52.944;9.098;2022-12-10T10:54:39;100996.03;;;9.40;50.23
21109;BME280;10712;52.944;9.098;2022-12-10T10:57:32;101002.47;;;9.36;50.31
21109;BME280;10712;52.944;9.098;2022-12-10T11:00:20;100999.81;;;9.36;50.40
21109;BME280;10712;52.944;9.098;2022-12-10T11:02:50;101000.72;;;9.35;50.12
21109;BME280;10712;52.944;9.098;2022-12-10T11:05:26;100999.81;;;9.36;49.89
21109;BME280;10712;52.944;9.098;2022-12-10T11:08:02;100998.25;;;9.32;49.76
21109;BME280;10712;52.944;9.098;2022-12-10T11:10:29;100995.66;;;9.31;49.82
21109;BME280;10712;52.944;9.098;2022-12-10T11:13:03;100995.88;;;9.26;49.71
21109;BME280;10712;52.944;9.098;2022-12-10T11:18:02;100994.16;;;9.25;49.72
21109;BME280;10712;52.944;9.098;2022-12-10T11:20:34;100996.81;;;9.25;49.72
21109;BME280;10712;52.944;9.098;2022-12-10T11:23:12;100992.19;;;9.29;49.75
21109;BME280;10712;52.944;9.098;2022-12-10T11:26:01;100986.03;;;9.28;49.83
21109;BME280;10712;52.944;9.098;2022-12-10T11:35:42;100979.63;;;9.32;49.69
21109;BME280;10712;52.944;9.098;2022-12-10T11:39:08;100981.19;;;9.36;49.47
21109;BME280;10712;52.944;9.098;2022-12-10T11:42:05;100988.16;;;9.39;49.50
21109;BME280;10712;52.944;9.098;2022-12-10T11:45:07;100988.00;;;9.42;49.65
21109;BME280;10712;52.944;9.098;2022-12-10T11:47:54;100983.53;;;9.42;49.59
21109;BME280;10712;52.944;9.098;2022-12-10T11:50:41;100988.72;;;9.45;49.75
21109;BME280;10712;52.944;9.098;2022-12-10T11:53:34;100979.81;;;9.46;49.61
21109;BME280;10712;52.944;9.098;2022-12-10T12:01:51;100975.25;;;9.48;49.35
21109;BME280;10712;52.944;9.098;2022-12-10T12:04:49;100975.34;;;9.47;49.49
21109;BME280;10712;52.944;9.098;2022-12-10T12:07:46;100977.91;;;9.48;49.41
21109;BME280;10712;52.944;9.098;2022-12-10T12:13:23;100988.56;;;9.48;49.21
21109;BME280;10712;52.944;9.098;2022-12-10T12:16:11;100981.44;;;9.49;49.30
21109;BME280;10712;52.944;9.098;2022-12-10T12:19:03;100984.97;;;9.49;49.28
21109;BME280;10712;52.944;9.098;2022-12-10T12:21:31;100991.69;;;9.57;49.31
21109;BME280;10712;52.944;9.098;2022-12-10T12:24:04;100993.72;;;9.52;49.17
21109;BME280;10712;52.944;9.098;2022-12-10T12:26:42;100987.63;;;9.49;49.07
21109;BME280;10712;52.944;9.098;2022-12-10T12:29:34;100996.88;;;9.60;48.79
21109;BME280;10712;52.944;9.098;2022-12-10T12:32:05;100990.72;;;9.40;48.14
21109;BME280;10712;52.944;9.098;2022-12-10T12:34:59;100983.84;;;9.36;48.03
21109;BME280;10712;52.944;9.098;2022-12-10T12:37:44;100992.44;;;9.41;47.92
21109;BME280;10712;52.944;9.098;2022-12-10T12:40:23;100989.59;;;9.46;47.90
21109;BME280;10712;52.944;9.098;2022-12-10T12:43:03;100992.78;;;9.53;47.75
21109;BME280;10712;52.944;9.098;2022-12-10T12:45:45;100994.22;;;9.60;47.75
21109;BME280;10712;52.944;9.098;2022-12-10T12:50:53;100993.97;;;9.47;47.37
21109;BME280;10712;52.944;9.098;2022-12-10T12:53:23;100994.03;;;9.45;47.25
21109;BME280;10712;52.944;9.098;2022-12-10T12:59:11;100994.91;;;9.46;47.24
21109;BME280;10712;52.944;9.098;2022-12-10T13:01:53;100983.53;;;9.42;47.31
21109;BME280;10712;52.944;9.098;2022-12-10T13:04:20;100990.59;;;9.43;47.48
21109;BME280;10712;52.944;9.098;2022-12-10T13:12:48;100989.03;;;9.39;47.44
21109;BME280;10712;52.944;9.098;2022-12-10T13:15:37;100992.44;;;9.41;47.37
21109;BME280;10712;52.944;9.098;2022-12-10T13:21:15;100990.88;;;9.37;47.42
21109;BME280;10712;52.944;9.098;2022-12-10T13:23:51;101002.47;;;9.36;47.46
21109;BME280;10712;52.944;9.098;2022-12-10T13:26:36;101004.97;;;9.39;47.19
21109;BME280;10712;52.944;9.098;2022-12-10T13:29:54;101005.19;;;9.35;47.30
21109;BME280;10712;52.944;9.098;2022-12-10T13:32:42;101007.78;;;9.36;47.25
21109;BME280;10712;52.944;9.098;2022-12-10T13:40:41;101011.84;;;9.43;46.69
21109;BME280;10712;52.944;9.098;2022-12-10T13:43:37;101016.84;;;9.32;46.84
21109;BME280;10712;52.944;9.098;2022-12-10T13:46:32;101029.28;;;9.32;46.98
21109;BME280;10712;52.944;9.098;2022-12-10T13:49:02;101026.56;;;9.33;46.97
21109;BME280;10712;52.944;9.098;2022-12-10T13:58:36;101031.00;;;9.33;47.35
21109;BME280;10712;52.944;9.098;2022-12-10T14:01:26;101030.91;;;9.34;47.27
21109;BME280;10712;52.944;9.098;2022-12-10T14:04:47;101028.56;;;9.28;47.24
21109;BME280;10712;52.944;9.098;2022-12-10T14:06:48;101031.44;;;9.24;47.29
21109;BME280;10712;52.944;9.098;2022-12-10T14:09:27;101029.47;;;9.27;47.23
21109;BME280;10712;52.944;9.098;2022-12-10T14:11:56;101034.78;;;9.27;47.25
21109;BME280;10712;52.944;9.098;2022-12-10T14:14:38;101036.59;;;9.27;47.25
21109;BME280;10712;52.944;9.098;2022-12-10T14:17:14;101040.47;;;9.38;46.83
21109;BME280;10712;52.944;9.098;2022-12-10T14:19:46;101047.09;;;9.30;47.09
21109;BME280;10712;52.944;9.098;2022-12-10T14:22:29;101036.75;;;9.24;47.11
21109;BME280;10712;52.944;9.098;2022-12-10T14:25:03;101039.50;;;9.22;47.21
21109;BME280;10712;52.944;9.098;2022-12-10T14:27:32;101036.03;;;9.20;47.16
21109;BME280;10712;52.944;9.098;2022-12-10T14:30:28;101046.75;;;9.19;47.29
21109;BME280;10712;52.944;9.098;2022-12-10T14:32:58;101044.09;;;9.19;47.37
21109;BME280;10712;52.944;9.098;2022-12-10T14:35:26;101053.94;;;9.17;47.40
21109;BME280;10712;52.944;9.098;2022-12-10T14:37:57;101045.09;;;9.16;47.52
21109;BME280;10712;52.944;9.098;2022-12-10T14:40:39;101046.81;;;9.17;47.36
21109;BME280;10712;52.944;9.098;2022-12-10T14:43:12;101049.31;;;9.20;47.50
21109;BME280;10712;52.944;9.098;2022-12-10T14:45:47;101043.25;;;9.18;47.51
21109;BME280;10712;52.944;9.098;2022-12-10T14:48:15;101044.97;;;9.19;47.26